Terminal Aerodrome Forecast
Issued by NWS Louisville, KY

Home | Current Version | Previous Version | Text Only | Print | Product List | Glossary On
Versions: 1 2 3 4 5 6 7 8 9 10 11 12 13 14 15 16 17
671
FTUS43 KLMK 170540
TAFLEX
TAF
KLEX 170540Z 1706/1806 VRB03KT P6SM VCSH BKN025
     FM170800 VRB03KT P6SM BKN015
     FM171500 27005KT P6SM BKN015
     FM171900 28008KT P6SM SCT015
     FM180200 25006KT P6SM FEW200
     FM180300 24006KT P6SM SCT130=

USA.gov is the U.S. government's official web portal to all federal, state and local government web resources and services.